createdAt,value
2023-03-30T00:00:23.183Z,11.51
2023-03-30T00:02:53.834Z,11.47
2023-03-30T00:05:20.673Z,11.43
2023-03-30T00:07:47.200Z,11.41
2023-03-30T00:10:19.682Z,11.37
2023-03-30T00:12:48.335Z,11.37
2023-03-30T00:15:17.464Z,11.35
2023-03-30T00:17:44.812Z,11.35
2023-03-30T00:20:17.145Z,11.36
2023-03-30T00:22:45.742Z,11.41
2023-03-30T00:25:15.296Z,11.41
2023-03-30T00:27:42.057Z,11.43
2023-03-30T00:30:13.324Z,11.49
2023-03-30T00:32:39.969Z,11.56
2023-03-30T00:35:06.985Z,11.59
2023-03-30T00:37:37.328Z,11.65
2023-03-30T00:40:07.969Z,11.58
2023-03-30T00:42:37.975Z,11.60
2023-03-30T00:45:27.854Z,11.58
2023-03-30T00:48:15.325Z,11.60
2023-03-30T00:50:47.401Z,11.62
2023-03-30T00:53:19.230Z,11.61
2023-03-30T00:55:49.157Z,11.63
2023-03-30T00:58:17.863Z,11.63
2023-03-30T01:00:47.273Z,11.70
2023-03-30T01:03:28.974Z,11.78
2023-03-30T01:05:57.174Z,11.73
2023-03-30T01:08:27.183Z,11.66
2023-03-30T01:10:53.920Z,11.65
2023-03-30T01:13:20.871Z,11.64
2023-03-30T01:16:09.507Z,11.63
2023-03-30T01:19:01.237Z,11.58
2023-03-30T01:22:05.164Z,11.58
2023-03-30T01:25:02.952Z,11.58
2023-03-30T01:27:50.971Z,11.61
2023-03-30T01:30:44.292Z,11.60
2023-03-30T01:33:22.784Z,11.61
2023-03-30T01:36:23.074Z,11.71
2023-03-30T01:39:04.721Z,11.81
2023-03-30T01:41:42.234Z,11.81
2023-03-30T01:44:24.859Z,11.87
2023-03-30T01:46:57.963Z,11.89
2023-03-30T01:49:31.746Z,11.87
2023-03-30T01:52:21.419Z,11.94
2023-03-30T01:54:56.692Z,11.93
2023-03-30T01:57:37.733Z,11.89
2023-03-30T02:00:13.039Z,11.97
2023-03-30T02:02:44.165Z,11.98
2023-03-30T02:05:13.732Z,11.93
2023-03-30T02:07:42.373Z,11.90
2023-03-30T02:10:10.697Z,11.91
2023-03-30T02:12:37.955Z,11.97
2023-03-30T02:15:10.433Z,11.99
2023-03-30T02:17:38.169Z,12.12
2023-03-30T02:20:09.082Z,12.19
2023-03-30T02:22:36.077Z,12.15
2023-03-30T02:25:02.738Z,12.22
2023-03-30T02:27:29.822Z,12.16
2023-03-30T02:29:56.527Z,12.19
2023-03-30T02:32:25.929Z,12.13
2023-03-30T02:34:58.499Z,12.04
2023-03-30T02:37:33.977Z,11.96
2023-03-30T02:40:22.317Z,11.91
2023-03-30T02:42:55.454Z,11.97
2023-03-30T02:45:39.294Z,11.99
2023-03-30T02:48:28.825Z,12.02
2023-03-30T02:51:15.140Z,11.96
2023-03-30T02:53:48.136Z,11.98
2023-03-30T02:56:29.126Z,11.96
2023-03-30T02:59:06.986Z,11.92
2023-03-30T03:01:42.865Z,11.87
2023-03-30T03:04:11.547Z,11.85
2023-03-30T03:06:38.972Z,11.81
2023-03-30T03:09:05.654Z,11.78
2023-03-30T03:11:32.063Z,11.76
2023-03-30T03:13:59.393Z,11.76
2023-03-30T03:16:26.024Z,11.83
2023-03-30T03:18:52.609Z,11.86
2023-03-30T03:21:19.132Z,11.86
2023-03-30T03:23:48.359Z,11.86
2023-03-30T03:26:14.869Z,11.83
2023-03-30T03:28:41.410Z,11.83
2023-03-30T03:31:08.132Z,11.84
2023-03-30T03:33:34.794Z,11.89
2023-03-30T03:36:01.440Z,11.93
2023-03-30T03:38:28.779Z,12.01
2023-03-30T03:40:58.526Z,12.00
2023-03-30T03:43:25.631Z,11.93
2023-03-30T03:45:52.865Z,11.85
2023-03-30T03:48:22.287Z,11.80
2023-03-30T03:50:56.977Z,11.79
2023-03-30T03:53:25.372Z,11.79
2023-03-30T03:55:51.848Z,11.82
2023-03-30T03:58:18.908Z,11.85
2023-03-30T04:00:45.621Z,11.93
2023-03-30T04:03:12.487Z,11.93
2023-03-30T04:05:40.087Z,11.94
2023-03-30T04:08:10.621Z,11.94
2023-03-30T04:10:38.553Z,11.92
2023-03-30T04:13:05.397Z,11.92
2023-03-30T04:15:32.131Z,12.00
2023-03-30T04:17:58.685Z,11.99
2023-03-30T04:20:26.740Z,12.04
2023-03-30T04:22:53.544Z,12.03
2023-03-30T04:25:28.924Z,12.04
2023-03-30T04:27:56.703Z,12.03
2023-03-30T04:30:23.556Z,12.07
2023-03-30T04:33:03.462Z,12.04
2023-03-30T04:35:31.649Z,12.01
2023-03-30T04:37:58.130Z,12.00
2023-03-30T04:40:24.792Z,12.08
2023-03-30T04:42:51.243Z,12.15
2023-03-30T04:45:21.135Z,12.15
2023-03-30T04:47:47.768Z,12.33
2023-03-30T04:50:14.523Z,12.45
2023-03-30T04:52:41.156Z,12.49
2023-03-30T04:55:09.840Z,12.61
2023-03-30T04:57:36.285Z,12.74
2023-03-30T05:00:07.574Z,13.07
2023-03-30T05:02:34.397Z,13.15
2023-03-30T05:05:00.950Z,13.16
2023-03-30T05:07:27.445Z,13.39
2023-03-30T05:09:53.853Z,13.39
2023-03-30T05:12:20.501Z,13.40
2023-03-30T05:14:46.954Z,13.37
2023-03-30T05:17:13.491Z,13.57
2023-03-30T05:19:40.240Z,13.53
2023-03-30T05:22:07.010Z,13.55
2023-03-30T05:24:34.423Z,13.57
2023-03-30T05:27:02.293Z,13.49
2023-03-30T05:29:28.805Z,13.61
2023-03-30T05:31:55.342Z,13.53
2023-03-30T05:34:21.745Z,13.52
2023-03-30T05:36:48.531Z,13.52
2023-03-30T05:39:15.181Z,13.70
2023-03-30T05:41:41.672Z,13.52
2023-03-30T05:44:08.156Z,13.63
2023-03-30T05:46:34.632Z,13.61
2023-03-30T05:49:01.218Z,13.54
2023-03-30T05:51:27.837Z,13.53
2023-03-30T05:53:54.328Z,13.62
2023-03-30T05:56:21.560Z,13.48
2023-03-30T05:58:47.998Z,13.61
2023-03-30T06:01:14.593Z,13.54
2023-03-30T06:03:42.120Z,13.88
2023-03-30T06:06:09.268Z,13.74
2023-03-30T06:08:35.846Z,13.64
2023-03-30T06:11:02.592Z,13.66
2023-03-30T06:13:29.273Z,13.65
2023-03-30T06:15:57.065Z,13.61
2023-03-30T06:18:23.923Z,13.57
2023-03-30T06:20:51.726Z,13.52
2023-03-30T06:23:18.230Z,13.33
2023-03-30T06:25:52.479Z,13.18
2023-03-30T06:28:20.442Z,13.08
2023-03-30T06:30:49.005Z,13.02
2023-03-30T06:33:16.735Z,12.97
2023-03-30T06:35:51.797Z,12.94
2023-03-30T06:38:19.768Z,12.96
2023-03-30T06:40:46.523Z,12.96
2023-03-30T06:43:19.195Z,13.07
2023-03-30T06:45:56.968Z,13.21
2023-03-30T06:48:24.501Z,13.24
2023-03-30T06:50:52.114Z,13.28
2023-03-30T06:53:19.992Z,13.28
2023-03-30T06:55:54.605Z,13.41
2023-03-30T06:58:21.773Z,13.59
2023-03-30T07:00:48.297Z,13.63
2023-03-30T07:03:18.854Z,13.68
2023-03-30T07:05:49.675Z,13.70
2023-03-30T07:08:16.917Z,13.71
2023-03-30T07:10:43.360Z,13.81
2023-03-30T07:13:10.200Z,13.74
2023-03-30T07:15:36.838Z,13.75
2023-03-30T07:18:04.664Z,13.79
2023-03-30T07:20:31.634Z,13.65
2023-03-30T07:22:58.201Z,13.60
2023-03-30T07:25:24.688Z,13.68
2023-03-30T07:27:51.216Z,13.70
2023-03-30T07:30:21.794Z,13.68
2023-03-30T07:32:50.445Z,13.80
2023-03-30T07:35:17.396Z,13.91
2023-03-30T07:37:43.907Z,13.90
2023-03-30T07:40:11.802Z,13.91
2023-03-30T07:42:38.939Z,13.82
2023-03-30T07:45:05.888Z,13.82
2023-03-30T07:47:32.517Z,13.80
2023-03-30T07:49:59.004Z,13.85
2023-03-30T07:52:25.894Z,13.69
2023-03-30T07:54:54.690Z,13.69
2023-03-30T07:57:22.514Z,13.65
2023-03-30T07:59:49.376Z,13.36
2023-03-30T08:02:16.717Z,12.86
2023-03-30T08:04:44.472Z,12.60
2023-03-30T08:07:12.521Z,12.28
2023-03-30T08:09:39.023Z,12.03
2023-03-30T08:12:06.177Z,11.92
2023-03-30T08:14:32.720Z,11.83
2023-03-30T08:16:59.252Z,11.80
2023-03-30T08:19:27.000Z,11.79
2023-03-30T08:21:53.457Z,11.79
2023-03-30T08:24:19.923Z,11.75
2023-03-30T08:26:46.482Z,11.75
2023-03-30T08:29:13.084Z,11.77
2023-03-30T08:31:39.611Z,11.82
2023-03-30T08:34:07.949Z,11.89
2023-03-30T08:36:34.448Z,11.88
2023-03-30T08:39:00.962Z,11.91
2023-03-30T08:41:30.218Z,11.94
2023-03-30T08:44:05.941Z,11.98
2023-03-30T08:46:33.684Z,12.06
2023-03-30T08:49:04.762Z,12.13
2023-03-30T08:51:34.053Z,12.19
2023-03-30T08:54:05.431Z,12.15
2023-03-30T08:56:43.378Z,12.13
2023-03-30T08:59:43.759Z,12.19
2023-03-30T09:02:16.448Z,12.27
2023-03-30T09:05:10.762Z,12.45
2023-03-30T09:08:03.366Z,12.67
2023-03-30T09:10:37.236Z,12.87
2023-03-30T09:13:06.426Z,13.06
2023-03-30T09:15:45.292Z,13.16
2023-03-30T09:18:29.831Z,13.19
2023-03-30T09:20:59.570Z,13.17
2023-03-30T09:23:29.705Z,13.09
2023-03-30T09:26:08.439Z,13.04
2023-03-30T09:29:01.845Z,12.82
2023-03-30T09:31:41.489Z,12.30
2023-03-30T09:34:29.642Z,11.94
2023-03-30T09:37:09.856Z,11.82
2023-03-30T09:39:36.979Z,11.78
2023-03-30T09:42:26.011Z,11.80
2023-03-30T09:45:25.305Z,11.85
2023-03-30T09:47:52.249Z,11.86
2023-03-30T09:50:28.584Z,11.86
2023-03-30T09:53:01.423Z,11.88
2023-03-30T09:55:35.604Z,11.89
2023-03-30T09:58:28.918Z,11.86
2023-03-30T10:01:13.694Z,11.84
2023-03-30T10:03:42.509Z,11.85
2023-03-30T10:06:15.866Z,11.83
2023-03-30T10:08:48.514Z,11.82
2023-03-30T10:11:20.895Z,11.83
2023-03-30T10:13:49.535Z,11.84
2023-03-30T10:16:26.904Z,11.85
2023-03-30T10:18:59.471Z,11.86
2023-03-30T10:21:30.844Z,11.86
2023-03-30T10:24:25.204Z,11.86
2023-03-30T10:26:56.195Z,11.86
2023-03-30T10:29:25.653Z,11.88
2023-03-30T10:32:01.977Z,11.96
2023-03-30T10:34:36.749Z,12.00
2023-03-30T10:37:25.581Z,12.09
2023-03-30T10:39:53.326Z,12.11
2023-03-30T10:42:26.778Z,12.21
2023-03-30T10:45:00.809Z,12.23
2023-03-30T10:48:09.339Z,12.22
2023-03-30T10:51:06.633Z,12.23
2023-03-30T10:53:48.328Z,12.32
2023-03-30T10:56:26.418Z,12.30
2023-03-30T10:59:10.444Z,12.34
2023-03-30T11:01:39.947Z,12.36
2023-03-30T11:04:23.029Z,12.38
2023-03-30T11:06:53.169Z,12.48
2023-03-30T11:09:28.010Z,12.56
2023-03-30T11:12:06.617Z,12.63
2023-03-30T11:14:54.637Z,12.80
2023-03-30T11:17:41.887Z,12.85
2023-03-30T11:20:31.547Z,12.95
2023-03-30T11:23:23.140Z,13.10
2023-03-30T11:26:03.850Z,13.32
2023-03-30T11:28:47.600Z,13.44
2023-03-30T11:31:52.733Z,13.54
2023-03-30T11:34:28.117Z,13.65
2023-03-30T11:37:20.983Z,13.65
2023-03-30T11:39:56.853Z,13.79
2023-03-30T11:42:28.168Z,13.87
2023-03-30T11:44:55.673Z,14.09
2023-03-30T11:47:25.324Z,14.12
2023-03-30T11:50:13.570Z,14.01
2023-03-30T11:53:00.135Z,14.11
2023-03-30T11:55:49.996Z,14.15
2023-03-30T11:58:43.908Z,14.18
2023-03-30T12:01:29.028Z,14.08
2023-03-30T12:04:10.285Z,13.98
2023-03-30T12:06:41.165Z,13.96
2023-03-30T12:09:26.265Z,13.95
2023-03-30T12:11:57.675Z,13.97
2023-03-30T12:14:41.265Z,13.99
2023-03-30T12:17:52.847Z,13.80
2023-03-30T12:20:29.767Z,13.71
2023-03-30T12:23:13.481Z,13.64
2023-03-30T12:25:42.938Z,13.82
2023-03-30T12:28:09.368Z,13.86
2023-03-30T12:31:05.482Z,13.84
2023-03-30T12:33:49.389Z,13.67
2023-03-30T12:36:28.434Z,13.60
2023-03-30T12:39:02.256Z,13.66
2023-03-30T12:41:41.447Z,13.86
2023-03-30T12:44:29.423Z,13.85
2023-03-30T12:47:25.641Z,13.87
2023-03-30T12:50:24.624Z,13.72
2023-03-30T12:53:37.505Z,13.62
2023-03-30T12:56:42.591Z,13.41
2023-03-30T12:59:30.017Z,13.38
2023-03-30T13:02:12.296Z,13.52
2023-03-30T13:04:43.536Z,13.82
2023-03-30T13:07:25.529Z,14.29
2023-03-30T13:10:01.855Z,14.64
2023-03-30T13:12:42.092Z,14.75
2023-03-30T13:15:46.564Z,14.93
2023-03-30T13:18:12.914Z,14.82
2023-03-30T13:21:19.560Z,15.18
2023-03-30T13:24:00.841Z,15.41
2023-03-30T13:26:38.709Z,15.43
2023-03-30T13:29:11.489Z,14.97
2023-03-30T13:31:38.059Z,14.73
2023-03-30T13:34:24.130Z,14.82
2023-03-30T13:37:05.027Z,14.61
2023-03-30T13:40:07.399Z,15.01
2023-03-30T13:43:05.915Z,15.04
2023-03-30T13:45:44.301Z,14.79
2023-03-30T13:48:16.708Z,14.64
2023-03-30T13:50:55.223Z,14.57
2023-03-30T13:53:24.175Z,14.55
2023-03-30T13:55:50.973Z,14.57
2023-03-30T13:58:29.827Z,14.65
2023-03-30T14:01:01.202Z,14.57
2023-03-30T14:03:27.743Z,14.57
2023-03-30T14:05:58.044Z,14.63
2023-03-30T14:08:24.625Z,14.77
2023-03-30T14:10:52.434Z,14.91
2023-03-30T14:13:18.961Z,15.01
2023-03-30T14:15:45.636Z,14.95
2023-03-30T14:18:20.556Z,14.94
2023-03-30T14:20:57.904Z,14.89
2023-03-30T14:23:41.229Z,14.84
2023-03-30T14:26:22.293Z,14.62
2023-03-30T14:28:50.686Z,14.51
2023-03-30T14:31:19.687Z,14.42
2023-03-30T14:33:46.755Z,14.36
2023-03-30T14:36:19.144Z,14.31
2023-03-30T14:38:48.257Z,14.25
2023-03-30T14:41:27.707Z,14.11
2023-03-30T14:43:56.141Z,14.32
2023-03-30T14:46:25.600Z,14.45
2023-03-30T14:48:52.613Z,14.53
2023-03-30T14:51:34.135Z,14.60
2023-03-30T14:54:00.988Z,14.68
2023-03-30T14:56:28.122Z,14.74
2023-03-30T14:58:55.965Z,14.81
2023-03-30T15:01:33.738Z,14.85
2023-03-30T15:04:07.802Z,14.85
2023-03-30T15:06:36.109Z,14.79
2023-03-30T15:09:07.033Z,14.82
2023-03-30T15:11:37.886Z,14.82
2023-03-30T15:14:12.894Z,14.85
2023-03-30T15:16:39.695Z,14.72
2023-03-30T15:19:21.650Z,14.58
2023-03-30T15:21:53.598Z,14.55
2023-03-30T15:24:25.937Z,14.51
2023-03-30T15:26:55.820Z,14.45
2023-03-30T15:29:23.337Z,14.43
2023-03-30T15:32:20.897Z,14.41
2023-03-30T15:35:05.946Z,14.38
2023-03-30T15:37:33.693Z,14.33
2023-03-30T15:40:00.344Z,14.18
2023-03-30T15:42:32.596Z,14.02
2023-03-30T15:45:07.307Z,13.83
2023-03-30T15:47:34.111Z,13.77
2023-03-30T15:50:00.702Z,13.61
2023-03-30T15:52:35.721Z,13.60
2023-03-30T15:55:11.518Z,13.68
2023-03-30T15:57:43.506Z,13.65
2023-03-30T16:00:20.669Z,13.71
2023-03-30T16:02:48.794Z,13.84
2023-03-30T16:05:21.472Z,13.85
2023-03-30T16:07:48.522Z,13.78
2023-03-30T16:10:19.469Z,13.76
2023-03-30T16:12:47.028Z,13.91
2023-03-30T16:15:25.652Z,13.91
2023-03-30T16:17:52.438Z,13.91
2023-03-30T16:20:21.854Z,13.92
2023-03-30T16:22:48.918Z,13.83
2023-03-30T16:25:17.381Z,13.83
2023-03-30T16:27:44.756Z,13.84
2023-03-30T16:30:21.348Z,13.80
2023-03-30T16:32:47.835Z,13.73
2023-03-30T16:35:14.670Z,13.63
2023-03-30T16:37:41.889Z,13.60
2023-03-30T16:40:25.750Z,13.53
2023-03-30T16:42:52.196Z,13.45
2023-03-30T16:45:18.697Z,13.42
2023-03-30T16:47:45.156Z,13.38
2023-03-30T16:50:20.798Z,13.36
2023-03-30T16:52:47.360Z,13.35
2023-03-30T16:55:15.406Z,13.35
2023-03-30T16:57:42.025Z,13.35
2023-03-30T17:00:21.252Z,13.35
2023-03-30T17:02:47.937Z,13.34
2023-03-30T17:05:14.708Z,13.31
2023-03-30T17:07:42.024Z,13.28
2023-03-30T17:10:33.190Z,13.23
2023-03-30T17:13:00.212Z,13.17
2023-03-30T17:15:27.005Z,13.13
2023-03-30T17:17:53.613Z,13.09
2023-03-30T17:20:35.252Z,13.17
2023-03-30T17:23:01.750Z,13.15
2023-03-30T17:25:28.483Z,13.02
2023-03-30T17:27:56.416Z,12.99
2023-03-30T17:30:26.617Z,12.93
2023-03-30T17:32:59.946Z,12.92
2023-03-30T17:35:27.303Z,12.96
2023-03-30T17:37:55.604Z,12.95
2023-03-30T17:40:27.730Z,12.97
2023-03-30T17:42:55.199Z,12.95
2023-03-30T17:45:25.019Z,12.94
2023-03-30T17:47:52.273Z,12.92
2023-03-30T17:50:21.301Z,12.91
2023-03-30T17:52:48.148Z,12.90
2023-03-30T17:55:16.242Z,12.87
2023-03-30T17:57:42.781Z,12.85
2023-03-30T18:00:18.542Z,12.82
2023-03-30T18:02:45.331Z,12.81
2023-03-30T18:05:12.656Z,12.81
2023-03-30T18:07:39.444Z,12.80
2023-03-30T18:10:16.723Z,12.78
2023-03-30T18:12:43.234Z,12.76
2023-03-30T18:15:10.435Z,12.77
2023-03-30T18:17:37.701Z,12.78
2023-03-30T18:20:23.313Z,12.77
2023-03-30T18:22:51.166Z,12.72
2023-03-30T18:25:29.318Z,12.67
2023-03-30T18:27:58.885Z,12.67
2023-03-30T18:30:27.826Z,12.67
2023-03-30T18:32:55.505Z,12.67
2023-03-30T18:35:27.502Z,12.69
2023-03-30T18:37:55.251Z,12.66
2023-03-30T18:40:35.051Z,12.70
2023-03-30T18:43:01.658Z,12.69
2023-03-30T18:45:34.338Z,12.72
2023-03-30T18:48:01.908Z,12.70
2023-03-30T18:50:39.700Z,12.67
2023-03-30T18:53:08.544Z,12.64
2023-03-30T18:55:40.366Z,12.61
2023-03-30T18:58:14.824Z,12.60
2023-03-30T19:00:41.629Z,12.55
2023-03-30T19:03:08.345Z,12.52
2023-03-30T19:05:35.267Z,12.50
2023-03-30T19:08:02.089Z,12.47
2023-03-30T19:10:31.164Z,12.45
2023-03-30T19:12:57.635Z,12.43
2023-03-30T19:15:26.562Z,12.41
2023-03-30T19:17:53.446Z,12.40
2023-03-30T19:20:23.510Z,12.39
2023-03-30T19:22:50.820Z,12.38
2023-03-30T19:25:18.751Z,12.37
2023-03-30T19:27:55.424Z,12.38
2023-03-30T19:30:28.525Z,12.38
2023-03-30T19:32:57.994Z,12.39
2023-03-30T19:35:25.064Z,12.38
2023-03-30T19:37:51.792Z,12.40
2023-03-30T19:40:19.645Z,12.41
2023-03-30T19:42:48.305Z,12.41
2023-03-30T19:45:17.381Z,12.41
2023-03-30T19:47:44.369Z,12.40
2023-03-30T19:50:15.326Z,12.43
2023-03-30T19:52:42.012Z,12.43
2023-03-30T19:55:10.319Z,12.43
2023-03-30T19:57:37.337Z,12.43
2023-03-30T20:00:12.715Z,12.45
2023-03-30T20:02:40.040Z,12.44
2023-03-30T20:05:09.926Z,12.41
2023-03-30T20:07:37.284Z,12.41
2023-03-30T20:10:06.273Z,12.39
2023-03-30T20:12:33.281Z,12.39
2023-03-30T20:15:00.692Z,12.34
2023-03-30T20:17:31.363Z,12.31
2023-03-30T20:19:58.107Z,12.29
2023-03-30T20:22:25.541Z,12.26
2023-03-30T20:24:52.109Z,12.23
2023-03-30T20:27:18.520Z,12.22
2023-03-30T20:29:45.071Z,12.17
2023-03-30T20:32:11.502Z,12.10
2023-03-30T20:34:37.902Z,12.07
2023-03-30T20:37:04.356Z,12.04
2023-03-30T20:39:30.785Z,12.02
2023-03-30T20:41:58.212Z,12.03
2023-03-30T20:44:29.978Z,12.04
2023-03-30T20:46:58.534Z,12.03
2023-03-30T20:49:26.329Z,12.00
2023-03-30T20:51:53.199Z,11.97
2023-03-30T20:54:20.579Z,11.97
2023-03-30T20:56:47.182Z,11.97
2023-03-30T20:59:13.708Z,11.92
2023-03-30T21:01:47.093Z,11.91
2023-03-30T21:04:13.915Z,11.85
2023-03-30T21:06:42.025Z,11.81
2023-03-30T21:09:09.417Z,11.78
2023-03-30T21:11:39.120Z,11.76
2023-03-30T21:14:07.880Z,11.73
2023-03-30T21:16:36.764Z,11.72
2023-03-30T21:19:04.995Z,11.69
2023-03-30T21:21:33.741Z,11.69
2023-03-30T21:24:01.650Z,11.65
2023-03-30T21:26:29.179Z,11.64
2023-03-30T21:28:56.284Z,11.59
2023-03-30T21:31:23.392Z,11.59
2023-03-30T21:33:50.369Z,11.59
2023-03-30T21:36:17.026Z,11.56
2023-03-30T21:38:43.626Z,11.57
2023-03-30T21:41:15.928Z,11.61
2023-03-30T21:43:45.491Z,11.60
2023-03-30T21:46:14.313Z,11.60
2023-03-30T21:48:42.832Z,11.56
2023-03-30T21:51:21.802Z,11.56
2023-03-30T21:53:51.073Z,11.57
2023-03-30T21:56:19.276Z,11.58
2023-03-30T21:58:46.164Z,11.58
2023-03-30T22:01:13.034Z,11.58
2023-03-30T22:03:42.027Z,11.59
2023-03-30T22:06:11.455Z,11.56
2023-03-30T22:08:37.933Z,11.55
2023-03-30T22:11:20.024Z,11.52
2023-03-30T22:13:48.446Z,11.51
2023-03-30T22:16:24.316Z,11.53
2023-03-30T22:18:51.728Z,11.50
2023-03-30T22:21:24.444Z,11.46
2023-03-30T22:23:52.378Z,11.45
2023-03-30T22:26:18.800Z,11.43
2023-03-30T22:28:45.363Z,11.40
2023-03-30T22:31:15.571Z,11.41
2023-03-30T22:33:42.419Z,11.45
2023-03-30T22:36:16.758Z,11.44
2023-03-30T22:38:43.270Z,11.45
2023-03-30T22:41:10.326Z,11.45
2023-03-30T22:43:37.443Z,11.46
2023-03-30T22:46:05.530Z,11.43
2023-03-30T22:48:33.423Z,11.44
2023-03-30T22:51:04.178Z,11.42
2023-03-30T22:53:31.745Z,11.43
2023-03-30T22:55:58.479Z,11.44
2023-03-30T22:58:24.978Z,11.42
2023-03-30T23:00:51.829Z,11.40
2023-03-30T23:03:18.761Z,11.41
2023-03-30T23:05:52.145Z,11.41
2023-03-30T23:08:18.906Z,11.38
2023-03-30T23:10:45.876Z,11.36
2023-03-30T23:13:12.379Z,11.34
2023-03-30T23:15:38.869Z,11.30
2023-03-30T23:18:05.996Z,11.26
2023-03-30T23:20:32.559Z,11.22
2023-03-30T23:22:59.086Z,11.19
2023-03-30T23:25:26.534Z,11.19
2023-03-30T23:27:53.005Z,11.12
2023-03-30T23:30:19.606Z,11.11
2023-03-30T23:32:46.242Z,11.09
2023-03-30T23:35:12.747Z,11.08
2023-03-30T23:37:40.206Z,11.09
2023-03-30T23:40:07.963Z,11.07
2023-03-30T23:42:34.464Z,11.03
2023-03-30T23:45:01.237Z,10.99
2023-03-30T23:47:27.876Z,10.99
2023-03-30T23:49:54.370Z,10.97
2023-03-30T23:52:21.110Z,10.99
2023-03-30T23:54:52.436Z,10.98
2023-03-30T23:57:19.950Z,11.00
2023-03-30T23:59:46.609Z,10.99
